sensor_id;sensor_type;location;lat;lon;timestamp;temperature;humidity
25280;DHT22;13225;47.804;12.116;2022-11-25T00:01:08;3.90;99.90
25280;DHT22;13225;47.804;12.116;2022-11-25T00:03:34;3.90;99.90
25280;DHT22;13225;47.804;12.116;2022-11-25T00:06:12;3.80;99.90
25280;DHT22;13225;47.804;12.116;2022-11-25T00:08:38;3.70;99.90
25280;DHT22;13225;47.804;12.116;2022-11-25T00:11:05;3.70;99.90
25280;DHT22;13225;47.804;12.116;2022-11-25T00:13:31;3.70;99.90
25280;DHT22;13225;47.804;12.116;2022-11-25T00:16:01;3.70;99.90
25280;DHT22;13225;47.804;12.116;2022-11-25T00:18:27;3.60;99.90
25280;DHT22;13225;47.804;12.116;2022-11-25T00:20:53;3.70;99.90
25280;DHT22;13225;47.804;12.116;2022-11-25T00:23:18;3.70;99.90
25280;DHT22;13225;47.804;12.116;2022-11-25T00:25:44;3.60;99.90
25280;DHT22;13225;47.804;12.116;2022-11-25T00:28:09;3.50;99.90
25280;DHT22;13225;47.804;12.116;2022-11-25T00:30:35;3.70;99.90
25280;DHT22;13225;47.804;12.116;2022-11-25T00:33:00;3.70;99.90
25280;DHT22;13225;47.804;12.116;2022-11-25T00:35:26;3.60;99.90
25280;DHT22;13225;47.804;12.116;2022-11-25T00:37:52;3.60;99.90
25280;DHT22;13225;47.804;12.116;2022-11-25T00:40:17;3.60;99.90
25280;DHT22;13225;47.804;12.116;2022-11-25T00:42:43;3.60;99.90
25280;DHT22;13225;47.804;12.116;2022-11-25T00:45:29;3.60;99.90
25280;DHT22;13225;47.804;12.116;2022-11-25T00:47:54;3.60;99.90
25280;DHT22;13225;47.804;12.116;2022-11-25T00:50:20;3.60;99.90
25280;DHT22;13225;47.804;12.116;2022-11-25T00:52:46;3.60;99.90
25280;DHT22;13225;47.804;12.116;2022-11-25T00:55:11;3.50;99.90
25280;DHT22;13225;47.804;12.116;2022-11-25T00:57:37;3.50;99.90
25280;DHT22;13225;47.804;12.116;2022-11-25T01:00:04;3.50;99.90
25280;DHT22;13225;47.804;12.116;2022-11-25T01:02:29;3.50;99.90
25280;DHT22;13225;47.804;12.116;2022-11-25T01:04:55;3.50;99.90
25280;DHT22;13225;47.804;12.116;2022-11-25T01:07:21;3.50;99.90
25280;DHT22;13225;47.804;12.116;2022-11-25T01:09:46;3.50;99.90
25280;DHT22;13225;47.804;12.116;2022-11-25T01:12:13;3.50;99.90
25280;DHT22;13225;47.804;12.116;2022-11-25T01:14:39;3.50;99.90
25280;DHT22;13225;47.804;12.116;2022-11-25T01:17:04;3.50;99.90
25280;DHT22;13225;47.804;12.116;2022-11-25T01:19:30;3.50;99.90
25280;DHT22;13225;47.804;12.116;2022-11-25T01:21:56;3.50;99.90
25280;DHT22;13225;47.804;12.116;2022-11-25T01:24:22;3.50;99.90
25280;DHT22;13225;47.804;12.116;2022-11-25T01:26:47;3.50;99.90
25280;DHT22;13225;47.804;12.116;2022-11-25T01:29:15;3.50;99.90
25280;DHT22;13225;47.804;12.116;2022-11-25T01:31:42;3.60;99.90
25280;DHT22;13225;47.804;12.116;2022-11-25T01:34:19;3.50;99.90
25280;DHT22;13225;47.804;12.116;2022-11-25T01:36:45;3.50;99.90
25280;DHT22;13225;47.804;12.116;2022-11-25T01:39:15;3.50;99.90
25280;DHT22;13225;47.804;12.116;2022-11-25T01:41:44;3.50;99.90
25280;DHT22;13225;47.804;12.116;2022-11-25T01:44:15;3.50;99.90
25280;DHT22;13225;47.804;12.116;2022-11-25T01:46:42;3.40;99.90
25280;DHT22;13225;47.804;12.116;2022-11-25T01:54:28;3.30;99.90
25280;DHT22;13225;47.804;12.116;2022-11-25T01:57:43;3.30;99.90
25280;DHT22;13225;47.804;12.116;2022-11-25T01:59:51;3.30;99.90
25280;DHT22;13225;47.804;12.116;2022-11-25T02:02:19;3.30;99.90
25280;DHT22;13225;47.804;12.116;2022-11-25T02:04:45;3.40;99.90
25280;DHT22;13225;47.804;12.116;2022-11-25T02:07:26;3.30;99.90
25280;DHT22;13225;47.804;12.116;2022-11-25T02:09:53;3.30;99.90
25280;DHT22;13225;47.804;12.116;2022-11-25T02:12:20;3.30;99.90
25280;DHT22;13225;47.804;12.116;2022-11-25T02:14:48;3.30;99.90
25280;DHT22;13225;47.804;12.116;2022-11-25T02:17:15;3.30;99.90
25280;DHT22;13225;47.804;12.116;2022-11-25T02:22:51;3.30;99.90
25280;DHT22;13225;47.804;12.116;2022-11-25T02:25:35;3.30;99.90
25280;DHT22;13225;47.804;12.116;2022-11-25T02:28:15;3.30;99.90
25280;DHT22;13225;47.804;12.116;2022-11-25T02:30:42;3.30;99.90
25280;DHT22;13225;47.804;12.116;2022-11-25T02:33:08;3.30;99.90
25280;DHT22;13225;47.804;12.116;2022-11-25T02:35:36;3.40;99.90
25280;DHT22;13225;47.804;12.116;2022-11-25T02:38:06;3.30;99.90
25280;DHT22;13225;47.804;12.116;2022-11-25T02:41:00;3.20;99.90
25280;DHT22;13225;47.804;12.116;2022-11-25T02:43:29;3.20;99.90
25280;DHT22;13225;47.804;12.116;2022-11-25T02:46:07;3.20;99.90
25280;DHT22;13225;47.804;12.116;2022-11-25T02:48:35;3.20;99.90
25280;DHT22;13225;47.804;12.116;2022-11-25T02:51:02;3.20;99.90
25280;DHT22;13225;47.804;12.116;2022-11-25T02:53:27;3.20;99.90
25280;DHT22;13225;47.804;12.116;2022-11-25T02:55:53;3.20;99.90
25280;DHT22;13225;47.804;12.116;2022-11-25T02:58:19;3.10;99.90
25280;DHT22;13225;47.804;12.116;2022-11-25T03:00:45;3.00;99.90
25280;DHT22;13225;47.804;12.116;2022-11-25T03:03:11;3.10;99.90
25280;DHT22;13225;47.804;12.116;2022-11-25T03:05:37;3.10;99.90
25280;DHT22;13225;47.804;12.116;2022-11-25T03:08:03;3.20;99.90
25280;DHT22;13225;47.804;12.116;2022-11-25T03:10:29;3.20;99.90
25280;DHT22;13225;47.804;12.116;2022-11-25T03:12:55;3.20;99.90
25280;DHT22;13225;47.804;12.116;2022-11-25T03:15:22;3.20;99.90
25280;DHT22;13225;47.804;12.116;2022-11-25T03:17:48;3.30;99.90
25280;DHT22;13225;47.804;12.116;2022-11-25T03:20:14;3.20;99.90
25280;DHT22;13225;47.804;12.116;2022-11-25T03:22:43;3.30;99.90
25280;DHT22;13225;47.804;12.116;2022-11-25T03:25:10;3.30;99.90
25280;DHT22;13225;47.804;12.116;2022-11-25T03:27:36;3.20;99.90
25280;DHT22;13225;47.804;12.116;2022-11-25T03:30:04;3.20;99.90
25280;DHT22;13225;47.804;12.116;2022-11-25T03:32:30;3.20;99.90
25280;DHT22;13225;47.804;12.116;2022-11-25T03:34:56;3.20;99.90
25280;DHT22;13225;47.804;12.116;2022-11-25T03:37:21;3.30;99.90
25280;DHT22;13225;47.804;12.116;2022-11-25T03:39:47;3.20;99.90
25280;DHT22;13225;47.804;12.116;2022-11-25T03:42:15;3.30;99.90
25280;DHT22;13225;47.804;12.116;2022-11-25T03:44:40;3.30;99.90
25280;DHT22;13225;47.804;12.116;2022-11-25T03:47:06;3.30;99.90
25280;DHT22;13225;47.804;12.116;2022-11-25T03:49:31;3.30;99.90
25280;DHT22;13225;47.804;12.116;2022-11-25T03:51:57;3.40;99.90
25280;DHT22;13225;47.804;12.116;2022-11-25T03:54:23;3.40;99.90
25280;DHT22;13225;47.804;12.116;2022-11-25T03:56:49;3.40;99.90
25280;DHT22;13225;47.804;12.116;2022-11-25T03:59:14;3.40;99.90
25280;DHT22;13225;47.804;12.116;2022-11-25T04:01:40;3.40;99.90
25280;DHT22;13225;47.804;12.116;2022-11-25T04:04:06;3.30;99.90
25280;DHT22;13225;47.804;12.116;2022-11-25T04:06:32;3.40;99.90
25280;DHT22;13225;47.804;12.116;2022-11-25T04:08:58;3.40;99.90
25280;DHT22;13225;47.804;12.116;2022-11-25T04:11:24;3.40;99.90
25280;DHT22;13225;47.804;12.116;2022-11-25T04:14:12;3.40;99.90
25280;DHT22;13225;47.804;12.116;2022-11-25T04:16:38;3.50;99.90
25280;DHT22;13225;47.804;12.116;2022-11-25T04:19:04;3.50;99.90
25280;DHT22;13225;47.804;12.116;2022-11-25T04:21:29;3.60;99.90
25280;DHT22;13225;47.804;12.116;2022-11-25T04:23:55;3.50;99.90
25280;DHT22;13225;47.804;12.116;2022-11-25T04:26:21;3.50;99.90
25280;DHT22;13225;47.804;12.116;2022-11-25T04:28:46;3.50;99.90
25280;DHT22;13225;47.804;12.116;2022-11-25T04:31:12;3.40;99.90
25280;DHT22;13225;47.804;12.116;2022-11-25T04:33:38;3.40;99.90
25280;DHT22;13225;47.804;12.116;2022-11-25T04:36:03;3.50;99.90
25280;DHT22;13225;47.804;12.116;2022-11-25T04:38:32;3.50;99.90
25280;DHT22;13225;47.804;12.116;2022-11-25T04:40:58;3.40;99.90
25280;DHT22;13225;47.804;12.116;2022-11-25T04:43:23;3.40;99.90
25280;DHT22;13225;47.804;12.116;2022-11-25T04:45:49;3.30;99.90
25280;DHT22;13225;47.804;12.116;2022-11-25T04:48:15;3.30;99.90
25280;DHT22;13225;47.804;12.116;2022-11-25T04:50:40;3.20;99.90
25280;DHT22;13225;47.804;12.116;2022-11-25T04:53:06;3.30;99.90
25280;DHT22;13225;47.804;12.116;2022-11-25T04:55:32;3.30;99.90
25280;DHT22;13225;47.804;12.116;2022-11-25T04:57:57;3.30;99.90
25280;DHT22;13225;47.804;12.116;2022-11-25T05:00:23;3.30;99.90
25280;DHT22;13225;47.804;12.116;2022-11-25T05:02:48;3.30;99.90
25280;DHT22;13225;47.804;12.116;2022-11-25T05:05:14;3.30;99.90
25280;DHT22;13225;47.804;12.116;2022-11-25T05:07:40;3.40;99.90
25280;DHT22;13225;47.804;12.116;2022-11-25T05:10:06;3.30;99.90
25280;DHT22;13225;47.804;12.116;2022-11-25T05:12:33;3.40;99.90
25280;DHT22;13225;47.804;12.116;2022-11-25T05:14:58;3.30;99.90
25280;DHT22;13225;47.804;12.116;2022-11-25T05:17:30;3.30;99.90
25280;DHT22;13225;47.804;12.116;2022-11-25T05:19:56;3.30;99.90
25280;DHT22;13225;47.804;12.116;2022-11-25T05:22:28;3.20;99.90
25280;DHT22;13225;47.804;12.116;2022-11-25T05:24:54;3.30;99.90
25280;DHT22;13225;47.804;12.116;2022-11-25T05:27:20;3.30;99.90
25280;DHT22;13225;47.804;12.116;2022-11-25T05:29:47;3.30;99.90
25280;DHT22;13225;47.804;12.116;2022-11-25T05:32:13;3.30;99.90
25280;DHT22;13225;47.804;12.116;2022-11-25T05:34:39;3.30;99.90
25280;DHT22;13225;47.804;12.116;2022-11-25T05:37:05;3.20;99.90
25280;DHT22;13225;47.804;12.116;2022-11-25T05:39:31;3.20;99.90
25280;DHT22;13225;47.804;12.116;2022-11-25T05:41:57;3.30;99.90
25280;DHT22;13225;47.804;12.116;2022-11-25T05:44:23;3.30;99.90
25280;DHT22;13225;47.804;12.116;2022-11-25T05:46:48;3.30;99.90
25280;DHT22;13225;47.804;12.116;2022-11-25T05:49:15;3.20;99.90
25280;DHT22;13225;47.804;12.116;2022-11-25T05:51:41;3.30;99.90
25280;DHT22;13225;47.804;12.116;2022-11-25T05:54:06;3.30;99.90
25280;DHT22;13225;47.804;12.116;2022-11-25T05:56:32;3.20;99.90
25280;DHT22;13225;47.804;12.116;2022-11-25T05:58:58;3.20;99.90
25280;DHT22;13225;47.804;12.116;2022-11-25T06:01:24;3.20;99.90
25280;DHT22;13225;47.804;12.116;2022-11-25T06:03:49;3.10;99.90
25280;DHT22;13225;47.804;12.116;2022-11-25T06:06:15;3.10;99.90
25280;DHT22;13225;47.804;12.116;2022-11-25T06:08:42;3.00;99.90
25280;DHT22;13225;47.804;12.116;2022-11-25T06:11:14;3.00;99.90
25280;DHT22;13225;47.804;12.116;2022-11-25T06:13:40;3.00;99.90
25280;DHT22;13225;47.804;12.116;2022-11-25T06:16:11;3.00;99.90
25280;DHT22;13225;47.804;12.116;2022-11-25T06:18:37;3.00;99.90
25280;DHT22;13225;47.804;12.116;2022-11-25T06:21:04;3.00;99.90
25280;DHT22;13225;47.804;12.116;2022-11-25T06:23:32;3.00;99.90
25280;DHT22;13225;47.804;12.116;2022-11-25T06:28:30;3.00;99.90
25280;DHT22;13225;47.804;12.116;2022-11-25T06:30:55;2.90;99.90
25280;DHT22;13225;47.804;12.116;2022-11-25T06:33:21;3.00;99.90
25280;DHT22;13225;47.804;12.116;2022-11-25T06:35:46;3.00;99.90
25280;DHT22;13225;47.804;12.116;2022-11-25T06:38:12;3.00;99.90
25280;DHT22;13225;47.804;12.116;2022-11-25T06:40:38;2.90;99.90
25280;DHT22;13225;47.804;12.116;2022-11-25T06:43:04;2.80;99.90
25280;DHT22;13225;47.804;12.116;2022-11-25T06:45:30;2.80;99.90
25280;DHT22;13225;47.804;12.116;2022-11-25T06:47:56;2.70;99.90
25280;DHT22;13225;47.804;12.116;2022-11-25T06:50:22;2.70;99.90
25280;DHT22;13225;47.804;12.116;2022-11-25T06:52:48;2.70;99.90
25280;DHT22;13225;47.804;12.116;2022-11-25T06:55:13;2.70;99.90
25280;DHT22;13225;47.804;12.116;2022-11-25T06:57:41;2.70;99.90
25280;DHT22;13225;47.804;12.116;2022-11-25T07:00:08;2.70;99.90
25280;DHT22;13225;47.804;12.116;2022-11-25T07:02:33;2.90;99.90
25280;DHT22;13225;47.804;12.116;2022-11-25T07:05:00;3.00;99.90
25280;DHT22;13225;47.804;12.116;2022-11-25T07:07:26;3.00;99.90
25280;DHT22;13225;47.804;12.116;2022-11-25T07:09:51;3.00;99.90
25280;DHT22;13225;47.804;12.116;2022-11-25T07:12:17;3.10;99.90
25280;DHT22;13225;47.804;12.116;2022-11-25T07:14:43;3.10;99.90
25280;DHT22;13225;47.804;12.116;2022-11-25T07:17:08;3.20;99.90
25280;DHT22;13225;47.804;12.116;2022-11-25T07:19:34;3.30;99.90
25280;DHT22;13225;47.804;12.116;2022-11-25T07:22:00;3.40;99.90
25280;DHT22;13225;47.804;12.116;2022-11-25T07:24:26;3.40;99.90
25280;DHT22;13225;47.804;12.116;2022-11-25T07:26:51;3.50;99.90
25280;DHT22;13225;47.804;12.116;2022-11-25T07:29:17;3.70;99.90
25280;DHT22;13225;47.804;12.116;2022-11-25T07:31:44;3.70;99.90
25280;DHT22;13225;47.804;12.116;2022-11-25T07:34:16;3.80;99.90
25280;DHT22;13225;47.804;12.116;2022-11-25T07:36:43;3.90;99.90
25280;DHT22;13225;47.804;12.116;2022-11-25T07:39:15;3.90;99.90
25280;DHT22;13225;47.804;12.116;2022-11-25T07:41:41;4.00;99.90
25280;DHT22;13225;47.804;12.116;2022-11-25T07:44:07;4.10;99.90
25280;DHT22;13225;47.804;12.116;2022-11-25T07:46:42;4.10;99.90
25280;DHT22;13225;47.804;12.116;2022-11-25T07:49:14;4.20;99.90
25280;DHT22;13225;47.804;12.116;2022-11-25T07:51:43;4.30;99.90
25280;DHT22;13225;47.804;12.116;2022-11-25T07:54:12;4.40;99.90
25280;DHT22;13225;47.804;12.116;2022-11-25T07:56:40;4.40;99.90
25280;DHT22;13225;47.804;12.116;2022-11-25T07:59:09;4.50;99.90
25280;DHT22;13225;47.804;12.116;2022-11-25T08:01:36;4.60;99.90
25280;DHT22;13225;47.804;12.116;2022-11-25T08:04:01;4.60;99.90
25280;DHT22;13225;47.804;12.116;2022-11-25T08:06:28;4.70;99.90
25280;DHT22;13225;47.804;12.116;2022-11-25T08:08:55;4.80;99.90
25280;DHT22;13225;47.804;12.116;2022-11-25T08:11:27;4.80;99.90
25280;DHT22;13225;47.804;12.116;2022-11-25T08:13:54;4.90;99.90
25280;DHT22;13225;47.804;12.116;2022-11-25T08:16:22;4.90;99.90
25280;DHT22;13225;47.804;12.116;2022-11-25T08:18:50;5.10;99.90
25280;DHT22;13225;47.804;12.116;2022-11-25T08:21:17;5.10;99.90
25280;DHT22;13225;47.804;12.116;2022-11-25T08:23:44;5.20;99.90
25280;DHT22;13225;47.804;12.116;2022-11-25T08:26:16;5.20;99.90
25280;DHT22;13225;47.804;12.116;2022-11-25T08:28:42;5.30;99.90
25280;DHT22;13225;47.804;12.116;2022-11-25T08:31:11;5.30;99.90
25280;DHT22;13225;47.804;12.116;2022-11-25T08:33:39;5.40;99.90
25280;DHT22;13225;47.804;12.116;2022-11-25T08:36:05;5.40;99.90
25280;DHT22;13225;47.804;12.116;2022-11-25T08:38:33;5.50;99.90
25280;DHT22;13225;47.804;12.116;2022-11-25T08:41:00;5.60;99.90
25280;DHT22;13225;47.804;12.116;2022-11-25T08:43:28;5.60;99.90
25280;DHT22;13225;47.804;12.116;2022-11-25T08:45:54;5.50;99.90
25280;DHT22;13225;47.804;12.116;2022-11-25T08:48:20;5.40;99.90
25280;DHT22;13225;47.804;12.116;2022-11-25T08:50:49;5.30;99.90
25280;DHT22;13225;47.804;12.116;2022-11-25T08:53:16;5.20;99.90
25280;DHT22;13225;47.804;12.116;2022-11-25T08:55:42;5.20;99.90
25280;DHT22;13225;47.804;12.116;2022-11-25T08:58:08;5.20;99.90
25280;DHT22;13225;47.804;12.116;2022-11-25T09:00:36;5.10;99.90
25280;DHT22;13225;47.804;12.116;2022-11-25T09:03:02;5.10;99.90
25280;DHT22;13225;47.804;12.116;2022-11-25T09:05:28;5.10;99.90
25280;DHT22;13225;47.804;12.116;2022-11-25T09:08:01;5.10;99.90
25280;DHT22;13225;47.804;12.116;2022-11-25T09:10:27;5.10;99.90
25280;DHT22;13225;47.804;12.116;2022-11-25T09:12:53;5.20;99.90
25280;DHT22;13225;47.804;12.116;2022-11-25T09:15:18;5.30;99.90
25280;DHT22;13225;47.804;12.116;2022-11-25T09:17:44;5.30;99.90
25280;DHT22;13225;47.804;12.116;2022-11-25T09:20:10;5.40;99.90
25280;DHT22;13225;47.804;12.116;2022-11-25T09:22:36;5.40;99.90
25280;DHT22;13225;47.804;12.116;2022-11-25T09:25:02;5.50;99.90
25280;DHT22;13225;47.804;12.116;2022-11-25T09:27:30;5.60;99.90
25280;DHT22;13225;47.804;12.116;2022-11-25T09:29:56;5.70;99.90
25280;DHT22;13225;47.804;12.116;2022-11-25T09:32:24;5.80;99.90
25280;DHT22;13225;47.804;12.116;2022-11-25T09:34:51;5.80;99.90
25280;DHT22;13225;47.804;12.116;2022-11-25T09:37:16;5.80;99.90
25280;DHT22;13225;47.804;12.116;2022-11-25T09:39:43;5.80;99.90
25280;DHT22;13225;47.804;12.116;2022-11-25T09:45:22;6.10;99.90
25280;DHT22;13225;47.804;12.116;2022-11-25T09:48:49;6.20;99.90
25280;DHT22;13225;47.804;12.116;2022-11-25T09:51:10;6.30;99.90
25280;DHT22;13225;47.804;12.116;2022-11-25T09:53:56;6.30;99.90
25280;DHT22;13225;47.804;12.116;2022-11-25T09:56:34;6.20;99.90
25280;DHT22;13225;47.804;12.116;2022-11-25T09:59:09;6.20;99.90
25280;DHT22;13225;47.804;12.116;2022-11-25T10:01:58;6.20;99.90
25280;DHT22;13225;47.804;12.116;2022-11-25T10:04:41;6.30;99.90
25280;DHT22;13225;47.804;12.116;2022-11-25T10:07:10;6.30;99.90
25280;DHT22;13225;47.804;12.116;2022-11-25T10:09:39;6.30;99.90
25280;DHT22;13225;47.804;12.116;2022-11-25T10:12:45;6.40;99.90
25280;DHT22;13225;47.804;12.116;2022-11-25T10:15:11;6.40;99.90
25280;DHT22;13225;47.804;12.116;2022-11-25T10:17:43;6.40;99.90
25280;DHT22;13225;47.804;12.116;2022-11-25T10:20:23;6.40;99.90
25280;DHT22;13225;47.804;12.116;2022-11-25T10:22:51;6.40;99.90
25280;DHT22;13225;47.804;12.116;2022-11-25T10:25:24;6.50;99.90
25280;DHT22;13225;47.804;12.116;2022-11-25T10:33:26;6.80;99.90
25280;DHT22;13225;47.804;12.116;2022-11-25T10:40:51;7.50;99.90
25280;DHT22;13225;47.804;12.116;2022-11-25T10:43:18;7.60;99.90
25280;DHT22;13225;47.804;12.116;2022-11-25T10:45:57;7.70;99.90
25280;DHT22;13225;47.804;12.116;2022-11-25T10:56:48;7.70;99.90
25280;DHT22;13225;47.804;12.116;2022-11-25T11:01:52;7.60;99.90
25280;DHT22;13225;47.804;12.116;2022-11-25T11:04:19;7.50;99.90
25280;DHT22;13225;47.804;12.116;2022-11-25T11:06:47;7.80;99.90
25280;DHT22;13225;47.804;12.116;2022-11-25T11:09:35;7.90;99.90
25280;DHT22;13225;47.804;12.116;2022-11-25T11:14:49;7.90;99.90
25280;DHT22;13225;47.804;12.116;2022-11-25T11:17:31;8.10;99.90
25280;DHT22;13225;47.804;12.116;2022-11-25T11:20:09;8.40;99.90
25280;DHT22;13225;47.804;12.116;2022-11-25T11:22:48;8.50;99.90
25280;DHT22;13225;47.804;12.116;2022-11-25T11:27:46;8.60;99.90
25280;DHT22;13225;47.804;12.116;2022-11-25T11:30:20;8.70;99.90
25280;DHT22;13225;47.804;12.116;2022-11-25T11:35:47;9.00;99.90
25280;DHT22;13225;47.804;12.116;2022-11-25T11:38:25;9.20;99.90
25280;DHT22;13225;47.804;12.116;2022-11-25T11:40:59;9.30;99.90
25280;DHT22;13225;47.804;12.116;2022-11-25T11:43:41;9.20;99.90
25280;DHT22;13225;47.804;12.116;2022-11-25T11:52:25;9.60;99.90
25280;DHT22;13225;47.804;12.116;2022-11-25T11:55:00;9.50;99.90
25280;DHT22;13225;47.804;12.116;2022-11-25T11:57:50;9.60;99.90
25280;DHT22;13225;47.804;12.116;2022-11-25T12:00:22;9.60;99.90
25280;DHT22;13225;47.804;12.116;2022-11-25T12:03:24;9.60;99.90
25280;DHT22;13225;47.804;12.116;2022-11-25T12:05:50;10.00;99.90
25280;DHT22;13225;47.804;12.116;2022-11-25T12:11:02;10.10;99.90
25280;DHT22;13225;47.804;12.116;2022-11-25T12:13:49;10.10;99.90
25280;DHT22;13225;47.804;12.116;2022-11-25T12:19:01;10.80;99.90
25280;DHT22;13225;47.804;12.116;2022-11-25T12:22:01;10.90;99.90
25280;DHT22;13225;47.804;12.116;2022-11-25T12:24:47;10.90;99.90
25280;DHT22;13225;47.804;12.116;2022-11-25T12:27:43;11.50;99.90
25280;DHT22;13225;47.804;12.116;2022-11-25T12:30:10;11.50;99.90
25280;DHT22;13225;47.804;12.116;2022-11-25T12:37:37;11.40;99.90
25280;DHT22;13225;47.804;12.116;2022-11-25T12:43:31;11.90;99.90
25280;DHT22;13225;47.804;12.116;2022-11-25T12:48:49;11.80;99.90
25280;DHT22;13225;47.804;12.116;2022-11-25T12:51:30;11.70;99.90
25280;DHT22;13225;47.804;12.116;2022-11-25T13:11:32;9.60;99.90
25280;DHT22;13225;47.804;12.116;2022-11-25T13:14:19;9.30;99.90
25280;DHT22;13225;47.804;12.116;2022-11-25T13:16:49;9.30;99.90
25280;DHT22;13225;47.804;12.116;2022-11-25T13:19:19;9.30;99.90
25280;DHT22;13225;47.804;12.116;2022-11-25T13:21:56;9.30;99.90
25280;DHT22;13225;47.804;12.116;2022-11-25T13:24:41;9.20;99.90
25280;DHT22;13225;47.804;12.116;2022-11-25T13:30:21;9.10;99.90
25280;DHT22;13225;47.804;12.116;2022-11-25T13:32:51;9.10;99.90
25280;DHT22;13225;47.804;12.116;2022-11-25T13:37:52;9.20;99.90
25280;DHT22;13225;47.804;12.116;2022-11-25T13:42:51;9.60;99.90
25280;DHT22;13225;47.804;12.116;2022-11-25T13:45:36;9.90;99.90
25280;DHT22;13225;47.804;12.116;2022-11-25T13:48:21;10.30;99.90
25280;DHT22;13225;47.804;12.116;2022-11-25T13:50:51;10.60;99.90
25280;DHT22;13225;47.804;12.116;2022-11-25T13:53:37;10.70;99.90
25280;DHT22;13225;47.804;12.116;2022-11-25T14:01:39;10.30;99.90
25280;DHT22;13225;47.804;12.116;2022-11-25T14:04:13;9.80;99.90
25280;DHT22;13225;47.804;12.116;2022-11-25T14:18:04;8.20;99.90
25280;DHT22;13225;47.804;12.116;2022-11-25T14:20:54;8.10;99.90
25280;DHT22;13225;47.804;12.116;2022-11-25T14:26:12;7.90;99.90
25280;DHT22;13225;47.804;12.116;2022-11-25T14:28:46;7.90;99.90
25280;DHT22;13225;47.804;12.116;2022-11-25T14:31:23;7.80;99.90
25280;DHT22;13225;47.804;12.116;2022-11-25T14:33:54;7.70;99.90
25280;DHT22;13225;47.804;12.116;2022-11-25T14:36:28;7.90;99.90
25280;DHT22;13225;47.804;12.116;2022-11-25T14:38:58;8.20;99.90
25280;DHT22;13225;47.804;12.116;2022-11-25T14:42:09;8.40;99.90
25280;DHT22;13225;47.804;12.116;2022-11-25T14:44:48;8.50;99.90
25280;DHT22;13225;47.804;12.116;2022-11-25T14:47:14;8.40;99.90
25280;DHT22;13225;47.804;12.116;2022-11-25T14:49:49;8.30;99.90
25280;DHT22;13225;47.804;12.116;2022-11-25T14:54:47;7.80;99.90
25280;DHT22;13225;47.804;12.116;2022-11-25T14:57:21;7.70;99.90
25280;DHT22;13225;47.804;12.116;2022-11-25T14:59:48;7.60;99.90
25280;DHT22;13225;47.804;12.116;2022-11-25T15:02:28;7.50;99.90
25280;DHT22;13225;47.804;12.116;2022-11-25T15:05:24;7.50;99.90
25280;DHT22;13225;47.804;12.116;2022-11-25T15:08:07;7.50;99.90
25280;DHT22;13225;47.804;12.116;2022-11-25T15:13:13;7.40;99.90
25280;DHT22;13225;47.804;12.116;2022-11-25T15:15:44;7.30;99.90
25280;DHT22;13225;47.804;12.116;2022-11-25T15:18:17;7.30;99.90
25280;DHT22;13225;47.804;12.116;2022-11-25T15:20:55;7.30;99.90
25280;DHT22;13225;47.804;12.116;2022-11-25T15:23:30;7.30;99.90
25280;DHT22;13225;47.804;12.116;2022-11-25T15:25:59;7.20;99.90
25280;DHT22;13225;47.804;12.116;2022-11-25T15:28:36;7.20;99.90
25280;DHT22;13225;47.804;12.116;2022-11-25T15:31:14;7.30;99.90
25280;DHT22;13225;47.804;12.116;2022-11-25T15:33:41;7.20;99.90
25280;DHT22;13225;47.804;12.116;2022-11-25T15:36:08;7.30;99.90
25280;DHT22;13225;47.804;12.116;2022-11-25T15:38:38;7.30;99.90
25280;DHT22;13225;47.804;12.116;2022-11-25T15:43:48;7.30;99.90
25280;DHT22;13225;47.804;12.116;2022-11-25T15:46:15;7.30;99.90
25280;DHT22;13225;47.804;12.116;2022-11-25T15:48:47;7.40;99.90
25280;DHT22;13225;47.804;12.116;2022-11-25T15:56:39;7.30;99.90
25280;DHT22;13225;47.804;12.116;2022-11-25T16:05:33;7.40;99.90
25280;DHT22;13225;47.804;12.116;2022-11-25T16:08:29;7.30;99.90
25280;DHT22;13225;47.804;12.116;2022-11-25T16:10:58;7.30;99.90
25280;DHT22;13225;47.804;12.116;2022-11-25T16:13:32;7.20;99.90
25280;DHT22;13225;47.804;12.116;2022-11-25T16:18:30;7.20;99.90
25280;DHT22;13225;47.804;12.116;2022-11-25T16:21:01;7.30;99.90
25280;DHT22;13225;47.804;12.116;2022-11-25T16:23:27;7.40;99.90
25280;DHT22;13225;47.804;12.116;2022-11-25T16:26:14;7.40;99.90
25280;DHT22;13225;47.804;12.116;2022-11-25T16:28:42;7.40;99.90
25280;DHT22;13225;47.804;12.116;2022-11-25T16:31:15;7.40;99.90
25280;DHT22;13225;47.804;12.116;2022-11-25T16:33:41;7.40;99.90
25280;DHT22;13225;47.804;12.116;2022-11-25T16:36:07;7.30;99.90
25280;DHT22;13225;47.804;12.116;2022-11-25T16:38:33;7.30;99.90
25280;DHT22;13225;47.804;12.116;2022-11-25T16:40:59;7.30;99.90
25280;DHT22;13225;47.804;12.116;2022-11-25T16:43:26;7.20;99.90
25280;DHT22;13225;47.804;12.116;2022-11-25T16:45:53;7.30;99.90
25280;DHT22;13225;47.804;12.116;2022-11-25T16:48:23;7.30;99.90
25280;DHT22;13225;47.804;12.116;2022-11-25T16:50:50;7.20;99.90
25280;DHT22;13225;47.804;12.116;2022-11-25T16:53:16;7.10;99.90
25280;DHT22;13225;47.804;12.116;2022-11-25T16:55:44;7.10;99.90
25280;DHT22;13225;47.804;12.116;2022-11-25T16:58:20;7.00;99.90
25280;DHT22;13225;47.804;12.116;2022-11-25T17:00:55;7.10;99.90
25280;DHT22;13225;47.804;12.116;2022-11-25T17:03:21;7.00;99.90
25280;DHT22;13225;47.804;12.116;2022-11-25T17:05:49;7.10;99.90
25280;DHT22;13225;47.804;12.116;2022-11-25T17:08:15;7.00;99.90
25280;DHT22;13225;47.804;12.116;2022-11-25T17:10:42;7.00;99.90
25280;DHT22;13225;47.804;12.116;2022-11-25T17:13:19;7.00;99.90
25280;DHT22;13225;47.804;12.116;2022-11-25T17:15:46;7.00;99.90
25280;DHT22;13225;47.804;12.116;2022-11-25T17:18:13;7.00;99.90
25280;DHT22;13225;47.804;12.116;2022-11-25T17:20:42;6.90;99.90
25280;DHT22;13225;47.804;12.116;2022-11-25T17:23:15;6.90;99.90
25280;DHT22;13225;47.804;12.116;2022-11-25T17:25:48;6.90;99.90
25280;DHT22;13225;47.804;12.116;2022-11-25T17:28:18;6.90;99.90
25280;DHT22;13225;47.804;12.116;2022-11-25T17:30:47;6.90;99.90
25280;DHT22;13225;47.804;12.116;2022-11-25T17:33:19;6.90;99.90
25280;DHT22;13225;47.804;12.116;2022-11-25T17:35:45;6.80;99.90
25280;DHT22;13225;47.804;12.116;2022-11-25T17:38:19;6.80;99.90
25280;DHT22;13225;47.804;12.116;2022-11-25T17:40:45;6.80;99.90
25280;DHT22;13225;47.804;12.116;2022-11-25T17:43:16;6.80;99.90
25280;DHT22;13225;47.804;12.116;2022-11-25T17:45:43;6.80;99.90
25280;DHT22;13225;47.804;12.116;2022-11-25T17:48:16;6.70;99.90
25280;DHT22;13225;47.804;12.116;2022-11-25T17:50:41;6.70;99.90
25280;DHT22;13225;47.804;12.116;2022-11-25T17:53:07;6.70;99.90
25280;DHT22;13225;47.804;12.116;2022-11-25T17:55:37;6.60;99.90
25280;DHT22;13225;47.804;12.116;2022-11-25T17:58:04;6.60;99.90
25280;DHT22;13225;47.804;12.116;2022-11-25T18:00:31;6.60;99.90